createdAt,value
2023-01-23T00:01:20.847Z,6.47
2023-01-23T00:03:48.273Z,6.80
2023-01-23T00:06:16.893Z,6.68
2023-01-23T00:08:47.421Z,6.22
2023-01-23T00:11:19.916Z,6.32
2023-01-23T00:13:47.141Z,6.03
2023-01-23T00:16:17.090Z,5.40
2023-01-23T00:18:44.397Z,5.68
2023-01-23T00:21:13.948Z,5.43
2023-01-23T00:23:49.611Z,5.93
2023-01-23T00:26:19.619Z,5.55
2023-01-23T00:28:47.515Z,5.50
2023-01-23T00:31:24.950Z,6.18
2023-01-23T00:34:00.861Z,5.82
2023-01-23T00:36:33.419Z,6.20
2023-01-23T00:39:00.677Z,6.03
2023-01-23T00:41:27.946Z,6.20
2023-01-23T00:43:55.303Z,5.90
2023-01-23T00:46:23.467Z,6.10
2023-01-23T00:48:51.213Z,5.68
2023-01-23T00:51:19.257Z,6.43
2023-01-23T00:53:47.448Z,5.85
2023-01-23T00:56:14.480Z,6.72
2023-01-23T00:58:44.125Z,5.50
2023-01-23T01:01:14.009Z,5.18
2023-01-23T01:03:41.730Z,5.17
2023-01-23T01:06:09.899Z,6.75
2023-01-23T01:08:36.950Z,5.43
2023-01-23T01:11:04.632Z,5.22
2023-01-23T01:13:31.739Z,5.57
2023-01-23T01:16:01.999Z,5.90
2023-01-23T01:18:29.874Z,5.00
2023-01-23T01:20:57.837Z,5.10
2023-01-23T01:23:25.237Z,5.13
2023-01-23T01:25:52.396Z,5.40
2023-01-23T01:28:21.207Z,6.03
2023-01-23T01:30:48.265Z,5.32
2023-01-23T01:33:15.328Z,6.07
2023-01-23T01:35:42.454Z,4.97
2023-01-23T01:38:09.573Z,5.03
2023-01-23T01:40:37.359Z,5.35
2023-01-23T01:43:08.871Z,4.38
2023-01-23T01:46:01.447Z,4.28
2023-01-23T01:48:52.169Z,4.47
2023-01-23T01:51:52.170Z,4.05
2023-01-23T01:54:31.432Z,4.32
2023-01-23T01:57:21.199Z,3.95
2023-01-23T02:00:03.986Z,4.53
2023-01-23T02:02:45.755Z,4.25
2023-01-23T02:05:17.050Z,4.07
2023-01-23T02:07:54.523Z,4.32
2023-01-23T02:10:22.858Z,4.38
2023-01-23T02:12:52.225Z,4.95
2023-01-23T02:15:22.386Z,3.75
2023-01-23T02:17:53.121Z,4.07
2023-01-23T02:20:40.097Z,3.50
2023-01-23T02:23:38.991Z,4.03
2023-01-23T02:26:12.672Z,3.58
2023-01-23T02:28:48.667Z,3.85
2023-01-23T02:31:20.338Z,4.00
2023-01-23T02:33:55.987Z,3.90
2023-01-23T02:36:26.892Z,3.40
2023-01-23T02:39:03.505Z,3.38
2023-01-23T02:41:41.625Z,4.35
2023-01-23T02:44:17.522Z,4.20
2023-01-23T02:46:50.001Z,3.83
2023-01-23T02:49:17.400Z,3.55
2023-01-23T02:51:44.461Z,4.10
2023-01-23T02:54:11.531Z,4.13
2023-01-23T02:56:38.871Z,3.70
2023-01-23T02:59:24.542Z,3.45
2023-01-23T03:01:51.581Z,3.55
2023-01-23T03:04:19.808Z,3.67
2023-01-23T03:06:46.738Z,3.70
2023-01-23T03:09:17.003Z,3.70
2023-01-23T03:11:46.642Z,3.22
2023-01-23T03:14:18.099Z,3.10
2023-01-23T03:16:50.313Z,3.20
2023-01-23T03:19:23.369Z,3.47
2023-01-23T03:21:51.299Z,2.97
2023-01-23T03:24:19.743Z,2.75
2023-01-23T03:26:48.290Z,3.10
2023-01-23T03:29:36.744Z,2.67
2023-01-23T03:32:05.171Z,2.92
2023-01-23T03:34:32.769Z,3.00
2023-01-23T03:37:01.355Z,2.88
2023-01-23T03:39:48.954Z,2.70
2023-01-23T03:42:20.596Z,2.80
2023-01-23T03:44:49.610Z,3.00
2023-01-23T03:47:18.614Z,3.28
2023-01-23T03:49:45.831Z,3.13
2023-01-23T03:52:13.057Z,3.00
2023-01-23T03:54:40.308Z,3.75
2023-01-23T03:57:09.804Z,3.78
2023-01-23T04:00:03.872Z,3.55
2023-01-23T04:02:41.462Z,4.15
2023-01-23T04:05:10.868Z,3.67
2023-01-23T04:07:38.532Z,3.67
2023-01-23T04:10:05.534Z,4.07
2023-01-23T04:12:32.811Z,3.90
2023-01-23T04:15:00.286Z,4.80
2023-01-23T04:17:30.062Z,4.30
2023-01-23T04:19:57.476Z,4.22
2023-01-23T04:22:24.431Z,3.92
2023-01-23T04:24:51.656Z,3.92
2023-01-23T04:27:19.452Z,3.65
2023-01-23T04:29:48.009Z,4.20
2023-01-23T04:32:15.016Z,4.00
2023-01-23T04:34:45.895Z,4.10
2023-01-23T04:37:13.137Z,3.50
2023-01-23T04:39:40.949Z,3.20
2023-01-23T04:42:08.470Z,3.28
2023-01-23T04:44:58.111Z,2.70
2023-01-23T04:47:45.100Z,2.97
2023-01-23T04:50:14.735Z,2.92
2023-01-23T04:52:45.395Z,2.60
2023-01-23T04:55:13.892Z,2.83
2023-01-23T04:57:41.438Z,3.00
2023-01-23T05:00:34.485Z,2.75
2023-01-23T05:03:03.646Z,2.40
2023-01-23T05:05:33.135Z,2.92
2023-01-23T05:08:01.475Z,3.15
2023-01-23T05:10:30.124Z,2.92
2023-01-23T05:13:02.839Z,2.67
2023-01-23T05:15:30.996Z,2.97
2023-01-23T05:17:58.163Z,3.03
2023-01-23T05:20:25.239Z,3.03
2023-01-23T05:22:54.013Z,2.97
2023-01-23T05:25:29.169Z,2.85
2023-01-23T05:27:58.303Z,2.72
2023-01-23T05:30:26.152Z,3.15
2023-01-23T05:33:01.812Z,2.65
2023-01-23T05:35:29.129Z,2.90
2023-01-23T05:37:56.395Z,3.20
2023-01-23T05:40:25.345Z,3.15
2023-01-23T05:43:16.670Z,2.80
2023-01-23T05:46:02.700Z,2.65
2023-01-23T05:48:52.034Z,2.58
2023-01-23T05:51:21.191Z,2.85
2023-01-23T05:53:48.914Z,2.45
2023-01-23T05:56:17.432Z,2.13
2023-01-23T05:59:09.645Z,2.40
2023-01-23T06:01:42.819Z,2.72
2023-01-23T06:04:30.242Z,3.17
2023-01-23T06:07:18.732Z,2.95
2023-01-23T06:09:47.723Z,2.80
2023-01-23T06:12:15.148Z,2.95
2023-01-23T06:14:42.217Z,2.60
2023-01-23T06:17:15.560Z,3.03
2023-01-23T06:19:43.213Z,2.72
2023-01-23T06:22:11.123Z,3.08
2023-01-23T06:24:56.498Z,2.80
2023-01-23T06:27:23.993Z,3.45
2023-01-23T06:29:52.505Z,2.60
2023-01-23T06:32:20.246Z,2.58
2023-01-23T06:34:48.173Z,4.10
2023-01-23T06:37:15.486Z,2.85
2023-01-23T06:42:14.859Z,2.80
2023-01-23T06:44:45.935Z,3.47
2023-01-23T06:47:14.161Z,3.40
2023-01-23T06:49:43.775Z,3.85
2023-01-23T06:52:11.272Z,3.20
2023-01-23T06:54:38.232Z,4.03
2023-01-23T06:57:06.456Z,4.88
2023-01-23T06:59:34.469Z,5.60
2023-01-23T07:04:53.760Z,5.50
2023-01-23T07:07:21.075Z,5.85
2023-01-23T07:09:49.832Z,5.85
2023-01-23T07:12:23.483Z,6.03
2023-01-23T07:14:50.667Z,6.18
2023-01-23T07:17:23.273Z,6.25
2023-01-23T07:19:51.618Z,6.03
2023-01-23T07:22:21.429Z,5.47
2023-01-23T07:24:48.672Z,6.60
2023-01-23T07:27:16.239Z,5.82
2023-01-23T07:29:43.400Z,7.10
2023-01-23T07:32:11.321Z,6.47
2023-01-23T07:34:38.724Z,7.50
2023-01-23T07:37:06.019Z,7.13
2023-01-23T07:39:32.958Z,7.00
2023-01-23T07:42:00.182Z,7.32
2023-01-23T07:44:28.792Z,8.53
2023-01-23T07:46:56.728Z,6.93
2023-01-23T07:49:23.635Z,7.53
2023-01-23T07:51:50.863Z,6.82
2023-01-23T07:54:17.793Z,7.28
2023-01-23T07:56:44.768Z,6.65
2023-01-23T07:59:13.130Z,6.43
2023-01-23T08:01:40.148Z,6.05
2023-01-23T08:04:07.360Z,6.88
2023-01-23T08:06:34.533Z,6.32
2023-01-23T08:09:01.676Z,6.07
2023-01-23T08:11:28.817Z,5.78
2023-01-23T08:13:55.639Z,5.53
2023-01-23T08:16:22.852Z,5.18
2023-01-23T08:18:50.046Z,5.65
2023-01-23T08:21:17.135Z,6.28
2023-01-23T08:23:45.050Z,5.25
2023-01-23T08:26:14.720Z,5.72
2023-01-23T08:28:43.316Z,5.47
2023-01-23T08:31:12.516Z,5.23
2023-01-23T08:36:11.034Z,5.30
2023-01-23T08:38:38.626Z,4.45
2023-01-23T08:41:06.507Z,4.90
2023-01-23T08:43:33.543Z,5.90
2023-01-23T08:46:00.970Z,4.57
2023-01-23T08:48:28.718Z,4.90
2023-01-23T08:51:02.231Z,4.97
2023-01-23T08:53:30.374Z,4.72
2023-01-23T08:56:06.302Z,4.63
2023-01-23T08:58:33.662Z,4.38
2023-01-23T09:01:00.772Z,4.47
2023-01-23T09:03:28.847Z,4.68
2023-01-23T09:05:55.952Z,4.25
2023-01-23T09:08:22.988Z,4.63
2023-01-23T09:10:49.951Z,4.57
2023-01-23T09:13:19.713Z,4.10
2023-01-23T09:15:47.092Z,4.53
2023-01-23T09:18:14.123Z,3.85
2023-01-23T09:20:41.505Z,4.00
2023-01-23T09:23:08.577Z,3.97
2023-01-23T09:25:35.725Z,3.83
2023-01-23T09:28:02.738Z,3.88
2023-01-23T09:30:29.847Z,3.70
2023-01-23T09:32:56.773Z,3.53
2023-01-23T09:35:23.899Z,3.55
2023-01-23T09:38:01.996Z,3.03
2023-01-23T09:40:48.182Z,3.80
2023-01-23T09:43:27.203Z,3.70
2023-01-23T09:46:03.500Z,3.20
2023-01-23T09:48:36.833Z,3.40
2023-01-23T09:51:31.260Z,3.85
2023-01-23T09:54:14.439Z,3.33
2023-01-23T09:56:45.257Z,3.58
2023-01-23T09:59:35.513Z,4.25
2023-01-23T10:02:03.277Z,4.13
2023-01-23T10:04:31.804Z,4.45
2023-01-23T10:07:05.108Z,4.10
2023-01-23T10:09:40.572Z,3.97
2023-01-23T10:12:37.463Z,4.25
2023-01-23T10:15:16.234Z,4.50
2023-01-23T10:18:08.335Z,4.95
2023-01-23T10:20:54.297Z,4.68
2023-01-23T10:23:24.149Z,4.50
2023-01-23T10:25:51.730Z,4.82
2023-01-23T10:28:38.930Z,4.78
2023-01-23T10:31:20.134Z,4.70
2023-01-23T10:34:03.551Z,4.43
2023-01-23T10:36:54.104Z,5.03
2023-01-23T10:39:43.295Z,5.53
2023-01-23T10:42:14.181Z,5.00
2023-01-23T10:44:41.279Z,4.57
2023-01-23T10:47:32.807Z,4.65
2023-01-23T10:50:00.568Z,5.38
2023-01-23T10:52:53.731Z,5.40
2023-01-23T10:55:20.977Z,5.85
2023-01-23T10:57:50.051Z,5.07
2023-01-23T11:00:36.770Z,5.22
2023-01-23T11:03:22.017Z,5.82
2023-01-23T11:05:53.429Z,6.68
2023-01-23T11:08:25.113Z,5.97
2023-01-23T11:10:52.211Z,6.47
2023-01-23T11:13:30.550Z,6.13
2023-01-23T11:15:57.913Z,6.40
2023-01-23T11:18:42.645Z,6.38
2023-01-23T11:21:32.703Z,5.97
2023-01-23T11:24:37.851Z,6.25
2023-01-23T11:27:20.474Z,7.15
2023-01-23T11:29:50.400Z,6.45
2023-01-23T11:32:17.502Z,6.35
2023-01-23T11:34:51.341Z,5.35
2023-01-23T11:37:28.662Z,6.30
2023-01-23T11:40:01.810Z,6.25
2023-01-23T11:42:30.379Z,5.90
2023-01-23T11:45:01.377Z,5.65
2023-01-23T11:47:37.357Z,5.95
2023-01-23T11:50:27.296Z,6.53
2023-01-23T11:53:05.659Z,6.38
2023-01-23T11:56:03.612Z,6.22
2023-01-23T11:58:51.855Z,6.25
2023-01-23T12:01:49.358Z,5.95
2023-01-23T12:04:35.403Z,6.50
2023-01-23T12:07:18.422Z,6.40
2023-01-23T12:10:05.681Z,5.63
2023-01-23T12:12:40.878Z,6.18
2023-01-23T12:16:02.157Z,6.40
2023-01-23T12:18:59.075Z,6.82
2023-01-23T12:21:44.358Z,8.25
2023-01-23T12:24:18.896Z,7.93
2023-01-23T12:27:01.820Z,7.53
2023-01-23T12:30:06.676Z,7.72
2023-01-23T12:32:51.957Z,8.50
2023-01-23T12:35:19.106Z,8.18
2023-01-23T12:38:11.708Z,7.13
2023-01-23T12:40:46.535Z,7.05
2023-01-23T12:43:19.589Z,6.57
2023-01-23T12:46:06.156Z,6.47
2023-01-23T12:48:41.124Z,6.10
2023-01-23T12:51:18.901Z,6.35
2023-01-23T12:53:51.529Z,5.95
2023-01-23T12:56:24.344Z,6.18
2023-01-23T12:59:09.559Z,5.65
2023-01-23T13:01:55.553Z,6.22
2023-01-23T13:04:58.069Z,6.18
2023-01-23T13:07:51.211Z,6.82
2023-01-23T13:11:03.974Z,7.30
2023-01-23T13:13:31.765Z,5.63
2023-01-23T13:16:11.718Z,6.30
2023-01-23T13:18:58.496Z,6.30
2023-01-23T13:21:44.181Z,6.40
2023-01-23T13:25:04.517Z,6.63
2023-01-23T13:27:55.918Z,6.60
2023-01-23T13:30:23.448Z,6.15
2023-01-23T13:32:51.976Z,5.88
2023-01-23T13:35:53.095Z,7.65
2023-01-23T13:38:23.113Z,6.25
2023-01-23T13:41:05.249Z,6.30
2023-01-23T13:43:51.302Z,5.57
2023-01-23T14:21:42.660Z,7.28
2023-01-23T14:27:51.286Z,6.85
2023-01-23T14:30:24.843Z,7.10
2023-01-23T14:32:52.409Z,8.15
2023-01-23T14:35:31.643Z,6.97
2023-01-23T14:38:08.044Z,6.80
2023-01-23T14:40:49.216Z,6.85
2023-01-23T14:43:21.632Z,6.15
2023-01-23T14:45:55.744Z,6.38
2023-01-23T14:48:22.690Z,6.85
2023-01-23T14:50:49.763Z,5.60
2023-01-23T14:53:17.059Z,6.55
2023-01-23T14:55:47.520Z,6.32
2023-01-23T14:58:22.627Z,6.75
2023-01-23T15:00:51.086Z,7.68
2023-01-23T15:03:38.585Z,6.82
2023-01-23T15:06:20.692Z,6.55
2023-01-23T15:08:48.841Z,6.63
2023-01-23T15:11:17.972Z,6.40
2023-01-23T15:14:01.528Z,7.53
2023-01-23T15:16:34.172Z,6.95
2023-01-23T15:19:21.054Z,6.97
2023-01-23T15:21:48.664Z,5.80
2023-01-23T15:24:15.653Z,5.75
2023-01-23T15:27:00.136Z,5.72
2023-01-23T15:29:27.386Z,5.30
2023-01-23T15:31:55.801Z,4.75
2023-01-23T15:34:26.592Z,5.57
2023-01-23T15:37:11.763Z,5.97
2023-01-23T15:39:58.577Z,5.07
2023-01-23T15:42:35.843Z,5.72
2023-01-23T15:45:03.954Z,5.53
2023-01-23T15:47:32.381Z,6.50
2023-01-23T15:50:03.172Z,4.93
2023-01-23T15:52:44.944Z,5.65
2023-01-23T15:55:13.029Z,5.85
2023-01-23T15:57:40.229Z,5.70
2023-01-23T16:00:17.782Z,7.55
2023-01-23T16:02:55.696Z,7.28
2023-01-23T16:05:26.659Z,9.77
2023-01-23T16:07:55.325Z,6.50
2023-01-23T16:10:23.395Z,5.60
2023-01-23T16:12:52.942Z,5.43
2023-01-23T16:15:25.216Z,5.85
2023-01-23T16:17:52.886Z,5.40
2023-01-23T16:20:29.132Z,5.25
2023-01-23T16:23:01.873Z,5.15
2023-01-23T16:25:45.714Z,5.72
2023-01-23T16:28:21.836Z,6.03
2023-01-23T16:30:50.944Z,4.45
2023-01-23T16:33:18.548Z,5.20
2023-01-23T16:35:46.762Z,4.63
2023-01-23T16:38:29.014Z,4.40
2023-01-23T16:40:59.722Z,5.47
2023-01-23T16:43:27.641Z,5.15
2023-01-23T16:45:56.583Z,4.95
2023-01-23T16:48:27.526Z,5.47
2023-01-23T16:51:00.953Z,4.53
2023-01-23T16:53:31.805Z,4.60
2023-01-23T16:56:01.348Z,4.28
2023-01-23T16:58:32.972Z,4.40
2023-01-23T17:01:08.440Z,3.88
2023-01-23T17:03:38.393Z,4.07
2023-01-23T17:06:05.581Z,4.32
2023-01-23T17:08:33.700Z,4.25
2023-01-23T17:11:04.790Z,4.97
2023-01-23T17:13:35.060Z,4.80
2023-01-23T17:16:07.328Z,3.95
2023-01-23T17:18:38.160Z,5.13
2023-01-23T17:21:05.928Z,4.40
2023-01-23T17:23:32.908Z,4.30
2023-01-23T17:26:01.611Z,4.72
2023-01-23T17:28:29.434Z,5.07
2023-01-23T17:31:00.616Z,4.80
2023-01-23T17:33:31.804Z,4.20
2023-01-23T17:36:03.395Z,4.65
2023-01-23T17:38:31.473Z,4.80
2023-01-23T17:40:58.471Z,5.50
2023-01-23T17:43:25.668Z,5.80
2023-01-23T17:45:53.443Z,4.47
2023-01-23T17:48:27.482Z,4.30
2023-01-23T17:50:54.980Z,4.70
2023-01-23T17:53:23.987Z,4.68
2023-01-23T17:55:52.893Z,4.07
2023-01-23T17:58:20.993Z,4.40
2023-01-23T18:00:51.117Z,4.82
2023-01-23T18:03:21.839Z,5.28
2023-01-23T18:05:49.497Z,4.70
2023-01-23T18:08:18.726Z,4.70
2023-01-23T18:10:49.542Z,4.38
2023-01-23T18:13:44.691Z,4.97
2023-01-23T18:16:20.376Z,5.00
2023-01-23T18:18:53.469Z,4.78
2023-01-23T18:21:20.989Z,4.30
2023-01-23T18:23:48.374Z,4.03
2023-01-23T18:26:33.924Z,3.67
2023-01-23T18:29:20.332Z,4.50
2023-01-23T18:32:06.149Z,4.35
2023-01-23T18:35:17.852Z,4.30
2023-01-23T18:37:51.460Z,3.92
2023-01-23T18:40:24.995Z,4.20
2023-01-23T18:43:18.739Z,4.50
2023-01-23T18:45:45.974Z,4.32
2023-01-23T18:48:25.062Z,3.97
2023-01-23T18:51:13.885Z,4.00
2023-01-23T18:53:52.098Z,3.90
2023-01-23T18:56:27.546Z,4.00
2023-01-23T18:59:14.457Z,4.40
2023-01-23T19:01:44.721Z,4.68
2023-01-23T19:04:16.500Z,3.97
2023-01-23T19:06:44.976Z,4.70
2023-01-23T19:09:19.126Z,5.40
2023-01-23T19:12:20.611Z,3.85
2023-01-23T19:15:03.199Z,2.95
2023-01-23T19:17:39.667Z,3.58
2023-01-23T19:20:28.835Z,3.67
2023-01-23T19:23:21.014Z,2.90
2023-01-23T19:25:48.358Z,3.28
2023-01-23T19:28:16.134Z,3.25
2023-01-23T19:30:43.664Z,3.22
2023-01-23T19:33:16.925Z,3.30
2023-01-23T19:35:45.314Z,3.75
2023-01-23T19:38:12.880Z,3.53
2023-01-23T19:40:40.091Z,3.33
2023-01-23T19:43:14.374Z,3.13
2023-01-23T19:45:43.519Z,3.97
2023-01-23T19:48:11.284Z,3.10
2023-01-23T19:50:39.103Z,3.33
2023-01-23T19:53:06.854Z,3.40
2023-01-23T19:55:37.122Z,3.17
2023-01-23T19:58:04.531Z,2.70
2023-01-23T20:00:33.388Z,3.03
2023-01-23T20:03:00.367Z,2.70
2023-01-23T20:05:27.412Z,3.03
2023-01-23T20:07:54.419Z,5.30
2023-01-23T20:10:22.368Z,3.22
2023-01-23T20:12:55.403Z,6.43
2023-01-23T20:15:25.109Z,3.92
2023-01-23T20:17:53.100Z,3.17
2023-01-23T20:20:20.724Z,3.10
2023-01-23T20:22:48.239Z,2.95
2023-01-23T20:25:17.079Z,3.55
2023-01-23T20:27:44.776Z,3.78
2023-01-23T20:30:15.581Z,3.10
2023-01-23T20:32:43.202Z,3.20
2023-01-23T20:35:11.138Z,3.15
2023-01-23T20:37:38.128Z,3.80
2023-01-23T20:40:06.163Z,4.97
2023-01-23T20:42:33.530Z,3.40
2023-01-23T20:45:00.523Z,3.38
2023-01-23T20:47:27.637Z,3.30
2023-01-23T20:49:54.730Z,2.85
2023-01-23T20:52:40.408Z,2.83
2023-01-23T20:55:07.945Z,3.60
2023-01-23T20:57:53.582Z,3.55
2023-01-23T21:00:20.849Z,3.17
2023-01-23T21:02:48.221Z,3.33
2023-01-23T21:05:15.139Z,3.63
2023-01-23T21:07:42.156Z,3.00
2023-01-23T21:10:09.750Z,3.58
2023-01-23T21:12:37.578Z,4.25
2023-01-23T21:15:05.028Z,3.90
2023-01-23T21:17:32.242Z,3.75
2023-01-23T21:19:59.435Z,3.70
2023-01-23T21:22:26.373Z,3.95
2023-01-23T21:24:53.628Z,3.75
2023-01-23T21:27:23.493Z,3.50
2023-01-23T21:29:51.621Z,4.15
2023-01-23T21:32:18.906Z,4.05
2023-01-23T21:34:46.159Z,4.18
2023-01-23T21:37:13.125Z,4.38
2023-01-23T21:39:40.229Z,3.90
2023-01-23T21:42:07.141Z,3.63
2023-01-23T21:44:35.690Z,4.22
2023-01-23T21:47:03.240Z,4.00
2023-01-23T21:49:31.499Z,4.13
2023-01-23T21:51:58.514Z,3.92
2023-01-23T21:54:25.656Z,3.97
2023-01-23T21:56:52.860Z,3.55
2023-01-23T21:59:20.003Z,3.78
2023-01-23T22:01:47.290Z,3.53
2023-01-23T22:04:18.606Z,4.68
2023-01-23T22:06:46.861Z,4.22
2023-01-23T22:09:18.521Z,3.30
2023-01-23T22:11:46.517Z,3.47
2023-01-23T22:14:13.897Z,3.60
2023-01-23T22:17:04.871Z,4.43
2023-01-23T22:19:32.101Z,4.15
2023-01-23T22:21:59.037Z,3.63
2023-01-23T22:24:26.223Z,3.75
2023-01-23T22:26:53.593Z,3.83
2023-01-23T22:29:22.840Z,3.33
2023-01-23T22:31:51.222Z,3.45
2023-01-23T22:34:18.624Z,4.22
2023-01-23T22:36:45.822Z,3.00
2023-01-23T22:39:16.257Z,3.30
2023-01-23T22:41:45.534Z,3.05
2023-01-23T22:44:13.535Z,3.40
2023-01-23T22:46:43.758Z,3.30
2023-01-23T22:49:11.346Z,3.20
2023-01-23T22:51:38.514Z,3.70
2023-01-23T22:54:06.163Z,3.53
2023-01-23T22:56:33.434Z,4.43
2023-01-23T22:59:01.833Z,2.88
2023-01-23T23:01:29.104Z,3.13
2023-01-23T23:03:58.001Z,3.08
2023-01-23T23:06:25.705Z,2.88
2023-01-23T23:08:52.877Z,4.93
2023-01-23T23:11:22.272Z,3.40
2023-01-23T23:13:49.890Z,3.10
2023-01-23T23:16:22.472Z,3.30
2023-01-23T23:18:52.430Z,3.67
2023-01-23T23:21:22.430Z,3.10
2023-01-23T23:23:50.338Z,3.15
2023-01-23T23:26:17.677Z,2.83
2023-01-23T23:28:45.106Z,3.00
2023-01-23T23:31:12.166Z,3.60
2023-01-23T23:33:39.296Z,3.10
2023-01-23T23:36:07.426Z,3.10
2023-01-23T23:38:34.576Z,3.30
2023-01-23T23:41:04.606Z,3.42
2023-01-23T23:43:32.024Z,3.35
2023-01-23T23:46:02.735Z,3.10
2023-01-23T23:48:31.572Z,3.50
2023-01-23T23:51:03.972Z,3.38
2023-01-23T23:53:31.397Z,3.42
2023-01-23T23:55:58.456Z,5.13
2023-01-23T23:58:25.654Z,3.95
